createdAt,value
2018-09-04T00:02:10.262Z,85.77
2018-09-04T00:04:38.893Z,85.49
2018-09-04T00:07:07.428Z,85.72
2018-09-04T00:09:36.005Z,86.23
2018-09-04T00:12:04.642Z,86.04
2018-09-04T00:14:33.441Z,85.74
2018-09-04T00:17:02.013Z,85.55
2018-09-04T00:19:30.701Z,85.14
2018-09-04T00:21:59.189Z,85.31
2018-09-04T00:24:27.812Z,85.64
2018-09-04T00:26:56.394Z,85.48
2018-09-04T00:29:25.062Z,85.67
2018-09-04T00:31:53.558Z,85.45
2018-09-04T00:34:22.185Z,85.54
2018-09-04T00:36:50.658Z,85.55
2018-09-04T00:39:19.143Z,85.63
2018-09-04T00:41:47.778Z,85.67
2018-09-04T00:44:16.462Z,85.71
2018-09-04T00:46:45.170Z,85.69
2018-09-04T00:49:13.654Z,85.84
2018-09-04T00:51:42.424Z,86.22
2018-09-04T00:54:10.966Z,86.07
2018-09-04T00:56:39.506Z,86.73
2018-09-04T00:59:08.204Z,86.30
2018-09-04T01:01:36.898Z,86.14
2018-09-04T01:04:05.644Z,86.03
2018-09-04T01:06:34.434Z,86.03
2018-09-04T01:09:03.778Z,86.01
2018-09-04T01:11:32.247Z,85.78
2018-09-04T01:14:01.820Z,86.50
2018-09-04T01:16:30.414Z,86.00
2018-09-04T01:18:58.966Z,85.96
2018-09-04T01:21:27.630Z,86.07
2018-09-04T01:23:56.100Z,86.04
2018-09-04T01:26:24.790Z,86.55
2018-09-04T01:28:53.318Z,86.16
2018-09-04T01:31:22.066Z,86.22
2018-09-04T01:33:50.523Z,86.11
2018-09-04T01:36:19.139Z,86.80
2018-09-04T01:38:47.757Z,87.03
2018-09-04T01:41:16.303Z,86.68
2018-09-04T01:43:44.982Z,86.49
2018-09-04T01:46:13.440Z,86.30
2018-09-04T01:48:42.846Z,86.51
2018-09-04T01:51:11.541Z,86.75
2018-09-04T01:53:40.197Z,86.69
2018-09-04T01:56:08.751Z,86.68
2018-09-04T01:58:37.350Z,86.45
2018-09-04T02:01:06.037Z,86.54
2018-09-04T02:03:34.600Z,86.75
2018-09-04T02:06:03.218Z,87.11
2018-09-04T02:08:31.706Z,87.07
2018-09-04T02:11:00.834Z,87.32
2018-09-04T02:13:29.322Z,87.21
2018-09-04T02:15:58.069Z,86.99
2018-09-04T02:18:26.674Z,86.53
2018-09-04T02:20:55.204Z,86.52
2018-09-04T02:23:23.804Z,86.43
2018-09-04T02:25:52.276Z,86.62
2018-09-04T02:28:21.188Z,86.68
2018-09-04T02:30:49.670Z,86.45
2018-09-04T02:33:18.354Z,86.48
2018-09-04T02:35:46.959Z,86.66
2018-09-04T02:38:15.738Z,86.66
2018-09-04T02:40:44.210Z,86.83
2018-09-04T02:43:12.721Z,87.10
2018-09-04T02:45:41.595Z,86.83
2018-09-04T02:48:10.181Z,86.87
2018-09-04T02:50:38.712Z,87.20
2018-09-04T02:53:07.194Z,86.98
2018-09-04T02:55:35.840Z,87.15
2018-09-04T02:58:04.390Z,87.35
2018-09-04T03:00:32.879Z,87.07
2018-09-04T03:03:01.498Z,87.04
2018-09-04T03:05:29.970Z,86.98
2018-09-04T03:07:59.374Z,87.72
2018-09-04T03:10:27.848Z,87.26
2018-09-04T03:12:56.441Z,87.33
2018-09-04T03:15:25.096Z,87.67
2018-09-04T03:17:53.729Z,87.77
2018-09-04T03:20:22.320Z,88.67
2018-09-04T03:22:50.814Z,87.87
2018-09-04T03:25:19.534Z,88.58
2018-09-04T03:27:48.011Z,88.92
2018-09-04T03:30:16.672Z,89.25
2018-09-04T03:32:45.282Z,88.33
2018-09-04T03:35:14.039Z,88.04
2018-09-04T03:37:42.675Z,88.24
2018-09-04T03:40:11.274Z,88.80
2018-09-04T03:42:40.019Z,88.44
2018-09-04T03:45:09.235Z,88.34
2018-09-04T03:47:37.936Z,88.70
2018-09-04T03:50:08.179Z,88.48
2018-09-04T03:52:36.812Z,88.67
2018-09-04T03:55:05.434Z,88.34
2018-09-04T03:57:34.103Z,88.42
2018-09-04T04:00:02.614Z,89.07
2018-09-04T04:02:31.225Z,88.95
2018-09-04T04:04:59.742Z,88.93
2018-09-04T04:07:28.439Z,88.66
2018-09-04T04:09:56.959Z,88.69
2018-09-04T04:12:25.483Z,88.59
2018-09-04T04:17:28.004Z,89.44
2018-09-04T04:19:56.650Z,89.62
2018-09-04T04:22:25.195Z,89.22
2018-09-04T04:24:53.737Z,89.11
2018-09-04T04:27:22.318Z,88.83
2018-09-04T04:29:51.190Z,88.79
2018-09-04T04:32:19.872Z,89.61
2018-09-04T04:34:48.867Z,89.17
2018-09-04T04:37:17.466Z,88.93
2018-09-04T04:39:46.095Z,88.76
2018-09-04T04:42:14.720Z,88.61
2018-09-04T04:44:43.342Z,89.41
2018-09-04T04:47:11.868Z,89.48
2018-09-04T04:49:40.404Z,89.66
2018-09-04T04:52:09.094Z,89.91
2018-09-04T04:54:37.732Z,89.65
2018-09-04T04:57:06.593Z,89.59
2018-09-04T04:59:35.105Z,89.15
2018-09-04T05:02:03.747Z,89.31
2018-09-04T05:04:32.231Z,89.32
2018-09-04T05:07:00.734Z,89.75
2018-09-04T05:09:29.558Z,89.42
2018-09-04T05:11:58.106Z,89.36
2018-09-04T05:14:26.769Z,89.26
2018-09-04T05:16:55.388Z,89.56
2018-09-04T05:19:24.325Z,89.70
2018-09-04T05:21:52.861Z,89.55
2018-09-04T05:26:41.502Z,89.94
2018-09-04T05:29:10.186Z,89.81
2018-09-04T05:31:43.008Z,89.69
2018-09-04T05:34:11.790Z,90.04
2018-09-04T05:36:40.387Z,89.93
2018-09-04T05:39:10.553Z,90.18
2018-09-04T05:41:39.021Z,90.45
2018-09-04T05:44:07.754Z,90.62
2018-09-04T05:46:50.187Z,90.71
2018-09-04T05:49:21.106Z,90.63
2018-09-04T05:51:49.686Z,90.61
2018-09-04T05:54:18.674Z,91.53
2018-09-04T05:56:47.199Z,91.69
2018-09-04T05:59:16.012Z,91.76
2018-09-04T06:01:44.502Z,91.75
2018-09-04T06:04:13.061Z,92.00
2018-09-04T06:06:41.967Z,91.81
2018-09-04T06:09:10.498Z,92.44
2018-09-04T06:11:39.390Z,92.61
2018-09-04T06:14:08.355Z,92.21
2018-09-04T06:16:37.422Z,92.07
2018-09-04T06:19:08.978Z,92.10
2018-09-04T06:21:41.825Z,92.33
2018-09-04T06:24:13.366Z,92.77
2018-09-04T06:26:52.896Z,92.94
2018-09-04T06:29:24.808Z,92.66
2018-09-04T06:31:53.442Z,93.14
2018-09-04T06:34:22.587Z,92.84
2018-09-04T06:36:51.163Z,92.50
2018-09-04T06:39:22.109Z,92.11
2018-09-04T06:41:50.922Z,91.60
2018-09-04T06:44:19.821Z,91.54
2018-09-04T06:46:48.373Z,90.95
2018-09-04T06:49:17.202Z,91.01
2018-09-04T06:51:45.913Z,90.76
2018-09-04T06:54:14.587Z,90.71
2018-09-04T06:56:43.150Z,91.12
2018-09-04T06:59:11.966Z,90.59
2018-09-04T07:01:40.560Z,90.86
2018-09-04T07:04:09.110Z,90.36
2018-09-04T07:06:37.886Z,89.22
2018-09-04T07:09:09.700Z,88.95
2018-09-04T07:11:38.274Z,88.58
2018-09-04T07:14:07.062Z,88.51
2018-09-04T07:16:35.730Z,88.99
2018-09-04T07:19:04.275Z,89.22
2018-09-04T07:21:32.847Z,88.56
2018-09-04T07:24:01.495Z,88.01
2018-09-04T07:26:30.186Z,87.87
2018-09-04T07:28:59.058Z,87.32
2018-09-04T07:31:28.294Z,87.34
2018-09-04T07:33:56.867Z,87.67
2018-09-04T07:36:25.532Z,87.78
2018-09-04T07:38:54.379Z,87.08
2018-09-04T07:41:22.948Z,86.39
2018-09-04T07:43:52.754Z,86.37
2018-09-04T07:46:21.228Z,86.98
2018-09-04T07:48:49.898Z,86.76
2018-09-04T07:51:18.351Z,86.72
2018-09-04T07:53:46.982Z,86.56
2018-09-04T07:56:16.643Z,85.82
2018-09-04T07:58:45.446Z,86.38
2018-09-04T08:01:14.239Z,85.49
2018-09-04T08:03:42.790Z,85.27
2018-09-04T08:06:11.606Z,85.24
2018-09-04T08:08:40.186Z,85.41
2018-09-04T08:11:09.010Z,85.01
2018-09-04T08:13:37.498Z,85.09
2018-09-04T08:16:06.545Z,84.81
2018-09-04T08:18:35.062Z,84.46
2018-09-04T08:21:03.531Z,83.71
2018-09-04T08:23:32.170Z,83.55
2018-09-04T08:26:00.745Z,82.87
2018-09-04T08:28:29.620Z,81.85
2018-09-04T08:30:58.205Z,81.78
2018-09-04T08:33:26.764Z,81.32
2018-09-04T08:35:55.286Z,80.96
2018-09-04T08:38:23.974Z,79.24
2018-09-04T08:40:52.547Z,78.93
2018-09-04T08:43:21.133Z,78.88
2018-09-04T08:45:49.723Z,78.44
2018-09-04T08:48:19.449Z,77.45
2018-09-04T08:50:48.155Z,76.18
2018-09-04T08:53:17.550Z,77.00
2018-09-04T08:55:46.385Z,76.21
2018-09-04T08:58:14.862Z,76.09
2018-09-04T09:00:43.493Z,75.46
2018-09-04T09:03:12.014Z,75.17
2018-09-04T09:05:40.703Z,75.33
2018-09-04T09:08:09.206Z,74.26
2018-09-04T09:10:37.695Z,74.11
2018-09-04T09:13:06.602Z,74.21
2018-09-04T09:15:35.090Z,73.95
2018-09-04T09:18:03.731Z,72.91
2018-09-04T09:20:32.218Z,73.82
2018-09-04T09:23:00.812Z,73.56
2018-09-04T09:25:29.297Z,72.71
2018-09-04T09:27:57.887Z,74.01
2018-09-04T09:30:26.407Z,73.78
2018-09-04T09:32:54.946Z,72.41
2018-09-04T09:35:23.542Z,71.69
2018-09-04T09:37:52.258Z,72.49
2018-09-04T09:40:20.974Z,72.27
2018-09-04T09:42:49.564Z,71.38
2018-09-04T09:45:18.171Z,71.24
2018-09-04T09:47:48.614Z,71.68
2018-09-04T09:50:17.858Z,72.19
2018-09-04T09:52:46.938Z,72.47
2018-09-04T09:55:15.492Z,72.12
2018-09-04T09:57:44.001Z,71.28
2018-09-04T10:00:17.705Z,71.36
2018-09-04T10:02:50.126Z,70.22
2018-09-04T10:05:18.838Z,70.65
2018-09-04T10:07:47.424Z,70.51
2018-09-04T10:10:15.960Z,70.35
2018-09-04T10:12:44.452Z,69.73
2018-09-04T10:15:13.314Z,69.74
2018-09-04T10:17:41.859Z,69.95
2018-09-04T10:20:10.640Z,68.43
2018-09-04T10:22:39.530Z,68.92
2018-09-04T10:25:09.122Z,68.25
2018-09-04T10:27:38.005Z,66.83
2018-09-04T10:30:07.335Z,67.27
2018-09-04T10:32:35.886Z,65.79
2018-09-04T10:35:04.450Z,68.14
2018-09-04T10:37:33.218Z,66.60
2018-09-04T10:40:07.240Z,66.44
2018-09-04T10:42:35.719Z,67.58
2018-09-04T10:45:04.379Z,67.03
2018-09-04T10:47:32.958Z,67.21
2018-09-04T10:50:01.498Z,65.57
2018-09-04T10:52:30.219Z,65.38
2018-09-04T10:54:58.946Z,65.03
2018-09-04T10:57:27.562Z,65.71
2018-09-04T10:59:56.209Z,64.84
2018-09-04T11:02:24.883Z,64.72
2018-09-04T11:04:53.454Z,63.30
2018-09-04T11:07:22.024Z,63.58
2018-09-04T11:09:51.661Z,62.92
2018-09-04T11:12:20.166Z,62.11
2018-09-04T11:14:48.936Z,62.39
2018-09-04T11:17:17.421Z,62.48
2018-09-04T11:19:45.918Z,61.12
2018-09-04T11:22:14.534Z,60.46
2018-09-04T11:24:43.091Z,62.35
2018-09-04T11:27:11.570Z,61.27
2018-09-04T11:29:40.079Z,60.49
2018-09-04T11:32:08.821Z,60.49
2018-09-04T11:34:37.395Z,61.22
2018-09-04T11:37:06.050Z,60.75
2018-09-04T11:39:34.514Z,60.17
2018-09-04T11:42:03.060Z,60.78
2018-09-04T11:44:31.534Z,61.41
2018-09-04T11:47:01.763Z,60.89
2018-09-04T11:49:30.278Z,60.35
2018-09-04T11:51:58.752Z,60.81
2018-09-04T11:54:28.180Z,60.51
2018-09-04T11:56:56.669Z,60.95
2018-09-04T11:59:25.842Z,60.91
2018-09-04T12:01:57.280Z,62.10
2018-09-04T12:04:25.927Z,61.81
2018-09-04T12:06:54.462Z,60.59
2018-09-04T12:09:23.043Z,59.16
2018-09-04T12:11:54.145Z,59.78
2018-09-04T12:14:23.123Z,60.88
2018-09-04T12:16:51.910Z,60.51
2018-09-04T12:19:21.323Z,61.04
2018-09-04T12:21:49.935Z,61.05
2018-09-04T12:24:18.989Z,60.68
2018-09-04T12:26:47.489Z,59.32
2018-09-04T12:29:18.058Z,61.49
2018-09-04T12:31:46.593Z,60.91
2018-09-04T12:34:15.472Z,59.64
2018-09-04T12:36:43.967Z,60.44
2018-09-04T12:39:12.579Z,60.54
2018-09-04T12:41:41.153Z,57.77
2018-09-04T12:44:09.889Z,57.50
2018-09-04T12:46:38.603Z,58.04
2018-09-04T12:49:07.118Z,58.45
2018-09-04T12:51:35.839Z,57.52
2018-09-04T12:54:04.443Z,59.49
2018-09-04T12:56:33.054Z,56.37
2018-09-04T12:59:01.566Z,58.01
2018-09-04T13:01:30.208Z,58.77
2018-09-04T13:03:59.714Z,57.42
2018-09-04T13:06:28.230Z,58.46
2018-09-04T13:08:56.969Z,58.60
2018-09-04T13:11:25.533Z,57.96
2018-09-04T13:13:54.422Z,58.05
2018-09-04T13:16:23.062Z,56.87
2018-09-04T13:18:51.858Z,58.71
2018-09-04T13:21:22.745Z,57.26
2018-09-04T13:23:54.093Z,59.13
2018-09-04T13:26:22.618Z,58.38
2018-09-04T13:28:51.226Z,57.37
2018-09-04T13:31:19.960Z,57.52
2018-09-04T13:33:48.643Z,57.26
2018-09-04T13:36:17.202Z,57.33
2018-09-04T13:38:46.021Z,57.84
2018-09-04T13:41:14.562Z,58.47
2018-09-04T13:43:43.203Z,58.06
2018-09-04T13:46:11.702Z,58.43
2018-09-04T13:48:40.332Z,58.03
2018-09-04T13:51:11.012Z,58.10
2018-09-04T13:53:39.662Z,57.61
2018-09-04T13:56:08.334Z,59.05
2018-09-04T13:58:36.790Z,57.35
2018-09-04T14:01:05.584Z,56.78
2018-09-04T14:03:35.248Z,58.05
2018-09-04T14:06:03.983Z,59.18
2018-09-04T14:08:32.458Z,56.31
2018-09-04T14:11:01.432Z,57.86
2018-09-04T14:13:29.890Z,58.63
2018-09-04T14:16:00.858Z,59.27
2018-09-04T14:18:29.354Z,59.32
2018-09-04T14:20:57.958Z,57.80
2018-09-04T14:23:26.495Z,57.75
2018-09-04T14:25:55.028Z,57.29
2018-09-04T14:28:40.964Z,57.68
2018-09-04T14:30:52.229Z,57.03
2018-09-04T14:33:21.109Z,58.80
2018-09-04T14:35:49.739Z,58.17
2018-09-04T14:38:21.664Z,55.40
2018-09-04T14:40:50.606Z,57.32
2018-09-04T14:43:19.343Z,57.07
2018-09-04T14:45:47.938Z,56.10
2018-09-04T14:48:16.590Z,55.13
2018-09-04T14:50:45.096Z,54.80
2018-09-04T14:53:13.726Z,55.06
2018-09-04T14:55:42.410Z,53.48
2018-09-04T14:58:10.996Z,55.07
2018-09-04T15:00:40.094Z,51.86
2018-09-04T15:03:08.683Z,53.10
2018-09-04T15:05:37.589Z,52.51
2018-09-04T15:08:06.154Z,54.29
2018-09-04T15:10:34.678Z,54.33
2018-09-04T15:13:04.355Z,54.21
2018-09-04T15:15:33.053Z,53.43
2018-09-04T15:18:01.947Z,53.69
2018-09-04T15:20:30.547Z,52.93
2018-09-04T15:22:59.310Z,54.04
2018-09-04T15:25:27.923Z,55.64
2018-09-04T15:27:56.714Z,56.84
2018-09-04T15:30:25.214Z,57.25
2018-09-04T15:32:55.889Z,57.47
2018-09-04T15:35:24.396Z,58.42
2018-09-04T15:37:53.050Z,59.12
2018-09-04T15:40:21.802Z,59.59
2018-09-04T15:42:50.384Z,60.70
2018-09-04T15:45:19.170Z,59.80
2018-09-04T15:47:47.654Z,60.18
2018-09-04T15:50:16.303Z,60.10
2018-09-04T15:52:44.830Z,58.98
2018-09-04T15:55:13.648Z,58.87
2018-09-04T15:57:42.206Z,59.31
2018-09-04T16:00:10.747Z,59.29
2018-09-04T16:02:39.298Z,58.73
2018-09-04T16:05:07.813Z,58.40
2018-09-04T16:07:36.744Z,58.64
2018-09-04T16:10:05.503Z,58.10
2018-09-04T16:12:34.186Z,58.28
2018-09-04T16:15:02.715Z,58.10
2018-09-04T16:17:31.343Z,58.86
2018-09-04T16:20:00.582Z,58.88
2018-09-04T16:22:29.422Z,58.28
2018-09-04T16:24:58.133Z,58.75
2018-09-04T16:27:26.691Z,59.01
2018-09-04T16:29:55.564Z,59.35
2018-09-04T16:32:24.210Z,58.25
2018-09-04T16:34:52.947Z,59.98
2018-09-04T16:37:21.366Z,59.62
2018-09-04T16:39:50.205Z,59.55
2018-09-04T16:42:18.698Z,59.21
2018-09-04T16:44:47.287Z,59.43
2018-09-04T16:47:15.995Z,58.93
2018-09-04T16:49:44.470Z,59.05
2018-09-04T16:52:13.303Z,57.61
2018-09-04T16:54:42.913Z,58.33
2018-09-04T16:57:11.723Z,57.95
2018-09-04T16:59:40.287Z,58.13
2018-09-04T17:02:08.904Z,57.52
2018-09-04T17:04:37.515Z,58.01
2018-09-04T17:07:06.046Z,58.40
2018-09-04T17:09:34.675Z,56.76
2018-09-04T17:12:03.188Z,58.53
2018-09-04T17:14:31.835Z,58.60
2018-09-04T17:17:00.326Z,58.14
2018-09-04T17:19:29.000Z,58.77
2018-09-04T17:21:57.711Z,59.25
2018-09-04T17:24:26.323Z,59.09
2018-09-04T17:26:54.893Z,60.08
2018-09-04T17:29:23.508Z,59.81
2018-09-04T17:31:52.171Z,60.74
2018-09-04T17:34:20.634Z,60.99
2018-09-04T17:36:50.328Z,60.82
2018-09-04T17:39:18.790Z,61.00
2018-09-04T17:41:47.530Z,60.77
2018-09-04T17:44:15.999Z,60.43
2018-09-04T17:46:44.605Z,61.00
2018-09-04T17:49:13.190Z,62.03
2018-09-04T17:51:42.403Z,61.90
2018-09-04T17:54:11.803Z,61.67
2018-09-04T17:56:40.409Z,61.45
2018-09-04T17:59:08.969Z,61.83
2018-09-04T18:01:37.493Z,62.31
2018-09-04T18:04:06.692Z,62.53
2018-09-04T18:06:35.238Z,62.30
2018-09-04T18:09:04.983Z,62.43
2018-09-04T18:11:33.618Z,62.58
2018-09-04T18:14:02.562Z,62.99
2018-09-04T18:16:31.756Z,62.67
2018-09-04T18:19:00.646Z,63.22
2018-09-04T18:21:29.331Z,63.54
2018-09-04T18:23:58.254Z,63.72
2018-09-04T18:26:26.854Z,64.08
2018-09-04T18:28:55.534Z,64.03
2018-09-04T18:31:24.175Z,64.09
2018-09-04T18:33:52.758Z,64.39
2018-09-04T18:36:21.875Z,64.41
2018-09-04T18:38:50.456Z,65.07
2018-09-04T18:41:19.300Z,64.84
2018-09-04T18:43:47.910Z,65.38
2018-09-04T18:46:16.834Z,65.50
2018-09-04T18:48:45.392Z,65.44
2018-09-04T18:51:14.193Z,64.73
2018-09-04T18:53:42.782Z,64.93
2018-09-04T18:56:11.250Z,65.27
2018-09-04T18:58:41.560Z,65.40
2018-09-04T19:01:10.155Z,65.90
2018-09-04T19:03:38.878Z,66.66
2018-09-04T19:06:07.447Z,66.86
2018-09-04T19:08:36.198Z,66.82
2018-09-04T19:11:05.246Z,66.98
2018-09-04T19:13:34.042Z,66.57
2018-09-04T19:16:02.764Z,67.25
2018-09-04T19:18:31.322Z,67.08
2018-09-04T19:21:00.015Z,67.20
2018-09-04T19:23:28.507Z,67.02
2018-09-04T19:25:57.334Z,66.58
2018-09-04T19:28:26.014Z,67.03
2018-09-04T19:30:54.788Z,67.35
2018-09-04T19:33:23.448Z,67.89
2018-09-04T19:35:52.280Z,67.75
2018-09-04T19:38:20.750Z,67.71
2018-09-04T19:40:49.242Z,67.81
2018-09-04T19:43:17.915Z,67.78
2018-09-04T19:45:46.955Z,67.57
2018-09-04T19:48:15.671Z,68.12
2018-09-04T19:50:44.371Z,67.83
2018-09-04T19:53:13.248Z,67.80
2018-09-04T19:55:42.446Z,68.17
2018-09-04T19:58:11.113Z,69.31
2018-09-04T20:00:39.990Z,69.05
2018-09-04T20:03:08.544Z,69.76
2018-09-04T20:05:37.084Z,69.36
2018-09-04T20:08:05.842Z,69.73
2018-09-04T20:10:34.414Z,69.78
2018-09-04T20:13:03.091Z,69.82
2018-09-04T20:15:31.992Z,69.91
2018-09-04T20:18:00.471Z,70.15
2018-09-04T20:20:29.262Z,70.23
2018-09-04T20:22:57.874Z,70.10
2018-09-04T20:25:26.507Z,70.82
2018-09-04T20:27:55.029Z,70.62
2018-09-04T20:30:23.539Z,70.62
2018-09-04T20:32:52.490Z,70.96
2018-09-04T20:35:21.031Z,70.61
2018-09-04T20:37:49.938Z,70.73
2018-09-04T20:40:18.446Z,70.38
2018-09-04T20:42:47.079Z,70.72
2018-09-04T20:45:15.658Z,71.23
2018-09-04T20:47:44.136Z,71.15
2018-09-04T20:50:12.936Z,70.88
2018-09-04T20:52:41.508Z,71.52
2018-09-04T20:55:10.416Z,71.82
2018-09-04T20:57:39.173Z,71.74
2018-09-04T21:00:25.934Z,71.50
2018-09-04T21:03:05.825Z,71.60
2018-09-04T21:05:45.724Z,71.44
2018-09-04T21:08:21.392Z,71.97
2018-09-04T21:10:50.538Z,71.58
2018-09-04T21:13:19.240Z,72.13
2018-09-04T21:15:47.786Z,71.77
2018-09-04T21:18:16.274Z,71.21
2018-09-04T21:20:45.080Z,71.13
2018-09-04T21:23:13.705Z,71.61
2018-09-04T21:25:42.392Z,71.12
2018-09-04T21:28:10.858Z,71.67
2018-09-04T21:30:39.454Z,71.49
2018-09-04T21:33:08.144Z,71.43
2018-09-04T21:35:36.622Z,71.65
2018-09-04T21:38:05.410Z,71.61
2018-09-04T21:40:33.878Z,71.13
2018-09-04T21:43:02.584Z,71.42
2018-09-04T21:45:31.077Z,71.52
2018-09-04T21:47:59.646Z,71.93
2018-09-04T21:50:28.189Z,71.59
2018-09-04T21:52:56.658Z,71.79
2018-09-04T21:55:25.553Z,71.54
2018-09-04T21:57:54.135Z,71.41
2018-09-04T22:00:25.659Z,71.94
2018-09-04T22:02:54.995Z,71.99
2018-09-04T22:05:25.226Z,71.75
2018-09-04T22:07:54.947Z,72.36
2018-09-04T22:10:23.982Z,72.76
2018-09-04T22:12:52.456Z,72.58
2018-09-04T22:15:21.462Z,73.02
2018-09-04T22:17:50.140Z,72.81
2018-09-04T22:20:18.793Z,72.58
2018-09-04T22:22:47.306Z,72.90
2018-09-04T22:25:15.846Z,72.72
2018-09-04T22:27:44.478Z,73.00
2018-09-04T22:30:13.086Z,72.61
2018-09-04T22:32:41.843Z,72.92
2018-09-04T22:35:10.476Z,72.41
2018-09-04T22:37:39.246Z,72.70
2018-09-04T22:40:08.046Z,73.04
2018-09-04T22:42:36.602Z,73.32
2018-09-04T22:45:05.310Z,72.67
2018-09-04T22:47:33.793Z,72.97
2018-09-04T22:50:07.507Z,72.69
2018-09-04T22:52:36.445Z,73.25
2018-09-04T22:55:07.359Z,72.63
2018-09-04T22:57:36.069Z,73.32
2018-09-04T23:00:04.637Z,73.22
2018-09-04T23:02:33.736Z,73.74
2018-09-04T23:05:02.786Z,73.69
2018-09-04T23:07:31.520Z,73.84
2018-09-04T23:10:00.211Z,73.40
2018-09-04T23:12:28.829Z,73.93
2018-09-04T23:14:57.425Z,73.94
2018-09-04T23:17:26.118Z,73.27
2018-09-04T23:19:54.596Z,73.29
2018-09-04T23:22:23.170Z,73.39
2018-09-04T23:24:51.898Z,73.52
2018-09-04T23:27:20.498Z,73.44
2018-09-04T23:29:49.876Z,73.47
2018-09-04T23:32:19.245Z,73.16
2018-09-04T23:34:48.116Z,73.02
2018-09-04T23:37:16.574Z,73.32
2018-09-04T23:39:45.078Z,73.00
2018-09-04T23:42:13.734Z,72.67
2018-09-04T23:44:42.226Z,73.83
2018-09-04T23:47:11.104Z,73.46
2018-09-04T23:49:39.626Z,73.68
2018-09-04T23:52:08.702Z,73.79
2018-09-04T23:54:37.175Z,73.89
2018-09-04T23:57:06.006Z,73.55
2018-09-04T23:59:34.577Z,73.82
